Flight Track Log - Related Links

Times and Time Zones

All times are in EDT time to prevent confusion due to time zone crossing. See the SWA757 flight status page for this flight to view local times or setup timezone preferences in your user account.

Time Position Orientation Groundspeed Altitude Reporting Facility
EDT Latitude Longitude Course Direction KTS MPH feet Rate Location/Type
Wed 11:12:41 PM 37.3667 -121.9333 321° Northwest 138 159 1,100  Level Northern Cal TRACON
Wed 11:13:09 PM 37.3783 -121.9453 321° Northwest 150 173 1,500 2,494 Climbing Oakland Center
Wed 11:14:10 PM 37.4236 -121.9814 328° Northwest 194 223 4,800 1,721 Climbing Oakland Center
Wed 11:15:11 PM 37.4108 -121.9128 103° East 206 237 5,000 836 Climbing Oakland Center
Wed 11:16:12 PM 37.3678 -121.8636 138° Southeast 209 241 6,500 2,705 Climbing Oakland Center
Wed 11:17:13 PM 37.3247 -121.8153 138° Southeast 208 239 10,500 2,852 Climbing Oakland Center
Wed 11:18:14 PM 37.2706 -121.7553 139° Southeast 281 323 12,300 2,656 Climbing Oakland Center
Wed 11:19:15 PM 37.2003 -121.6756 138° Southeast 333 383 15,900 3,295 Climbing Oakland Center
Wed 11:20:16 PM 37.1247 -121.5919 139° Southeast 358 412 19,000 3,148 Climbing Oakland Center
Wed 11:21:17 PM 37.0383 -121.4933 138° Southeast 385 443 22,300 3,122 Climbing Oakland Center
Wed 11:22:19 PM 36.9556 -121.3997 138° Southeast 398 458 25,400 2,732 Climbing Oakland Center
Wed 11:23:20 PM 36.8714 -121.3058 138° Southeast 404 465 27,900 1,770 Climbing Oakland Center
Wed 11:24:21 PM 36.7797 -121.2100 140° Southeast 440 506 29,000 1,475 Climbing Oakland Center
Wed 11:25:22 PM 36.6583 -121.0861 141° Southeast 467 537 30,900 984 Climbing Oakland Center
Wed 11:26:23 PM 36.5467 -121.0019 149° Southeast 468 539 31,000 49 Climbing Oakland Center
Wed 11:27:24 PM 36.4372 -120.9136 147° Southeast 467 537 31,000 1,082 Level Oakland Center
Wed 11:28:25 PM 36.3286 -120.8256 147° Southeast 466 536 33,200 2,213 Climbing Oakland Center
Wed 11:29:26 PM 36.2197 -120.7408 148° Southeast 462 532 35,500 2,016 Climbing Oakland Center
Wed 11:30:27 PM 36.1133 -120.6572 148° Southeast 454 522 37,300 1,672 Climbing Oakland Center
Wed 11:31:28 PM 36.0067 -120.5728 147° Southeast 455 524 38,900 836 Climbing Oakland Center
Wed 11:32:29 PM 35.9008 -120.4906 148° Southeast 446 513 39,000 49 Climbing Oakland Center
Wed 11:33:30 PM 35.7953 -120.4075 147° Southeast 447 514 39,000  Level Oakland Center
Wed 11:34:31 PM 35.6914 -120.3222 146° Southeast 445 512 39,000  Level Oakland Center
Wed 11:35:32 PM 35.5972 -120.2150 137° Southeast 454 522 39,000  Level Oakland Center
Wed 11:36:33 PM 35.5014 -120.1083 138° Southeast 463 533 39,000  Level Oakland Center
Wed 11:37:34 PM 35.4050 -120.0033 138° Southeast 458 527 39,000  Level Oakland Center
Wed 11:38:35 PM 35.3103 -119.9014 139° Southeast 455 524 39,000  Level Los Angeles Center
Wed 11:39:37 PM 35.2156 -119.7978 138° Southeast 455 524 39,000  Level Los Angeles Center
Wed 11:40:39 PM 35.1025 -119.6750 138° Southeast 453 521 39,000  Level Los Angeles Center
Wed 11:41:41 PM 35.0086 -119.5728 138° Southeast 452 520 39,000  Level Los Angeles Center
Wed 11:42:43 PM 34.9133 -119.4706 139° Southeast 456 525 39,000  Level Los Angeles Center
Wed 11:43:44 PM 34.8194 -119.3689 138° Southeast 453 521 39,000  Level Los Angeles Center
Wed 11:44:46 PM 34.7253 -119.2667 138° Southeast 452 520 39,000  Level Los Angeles Center
Wed 11:45:48 PM 34.6308 -119.1658 139° Southeast 452 520 39,000  Level Los Angeles Center
Wed 11:46:50 PM 34.5183 -119.0503 140° Southeast 451 519 39,000  Level Los Angeles Center
Wed 11:47:51 PM 34.4253 -118.9511 139° Southeast 447 514 39,000  Level Los Angeles Center
Wed 11:48:53 PM 34.3311 -118.8511 139° Southeast 449 517 39,000 -145 Level Los Angeles Center
Wed 11:49:55 PM 34.2375 -118.7536 139° Southeast 446 513 38,700 -629 Descending Los Angeles Center
Wed 11:50:57 PM 34.1436 -118.6539 139° Southeast 448 516 37,700 -927 Descending Los Angeles Center
Wed 11:51:58 PM 34.0489 -118.5547 139° Southeast 451 519 36,800 -927 Descending Los Angeles Center
Wed 11:53:00 PM 33.9539 -118.4544 139° Southeast 452 520 35,800 -1,113 Descending Los Angeles Center
Wed 11:54:02 PM 33.8661 -118.3433 134° Southeast 455 524 34,500 -1,463 Descending Los Angeles Center
Wed 11:55:03 PM 33.7589 -118.2119 134° Southeast 453 521 32,800 -1,756 Descending Los Angeles Center
Wed 11:56:05 PM 33.6850 -118.1131 132° Southeast 459 528 30,900 -2,439 Descending Los Angeles Center
Wed 11:57:06 PM 33.5819 -117.9842 134° Southeast 446 513 27,800 -2,667 Descending Los Angeles Center
Wed 11:58:20 PM 33.4836 -117.8600 133° Southeast 428 493 24,900 -2,338 Descending Los Angeles Center
Wed 11:59:22 PM 33.4050 -117.7611 134° Southeast 413 475 22,500 -2,371 Descending Los Angeles Center
Thu 12:00:24 AM 33.3281 -117.6647 134° Southeast 401 461 20,000 -2,341 Descending Los Angeles Center
Thu 12:01:25 AM 33.2519 -117.5711 134° Southeast 395 455 17,700 -2,195 Descending Los Angeles Center
Thu 12:02:27 AM 33.1703 -117.4964 143° Southeast 374 430 15,500 -2,049 Descending Los Angeles Center
Thu 12:03:28 AM 33.0861 -117.4286 146° Southeast 367 422 13,500 -2,683 Descending Los Angeles Center
Thu 12:04:30 AM 32.9889 -117.3500 146° Southeast 354 407 10,000 -1,805 Descending Los Angeles Center
Thu 12:05:31 AM 32.9167 -117.3000 150° Southeast 293 337 9,800 -945 Descending Southern California TRACON
Thu 12:06:37 AM 32.8500 -117.2333 140° Southeast 286 329 8,000 -1,667 Descending Southern California TRACON
Thu 12:07:37 AM 32.8000 -117.1500 126° Southeast 282 325 6,300 -1,513 Descending Southern California TRACON
Thu 12:08:36 AM 32.7822 -117.0881 109° East 276 318 5,000 -678 Descending Los Angeles Center
Thu 12:09:32 AM 32.7667 -117.0000 102° East 219 252 5,000 -492 Level Southern California TRACON
Thu 12:10:38 AM 32.7000 -117.0000 180° South 234 269 4,000 -818 Descending Southern California TRACON
Thu 12:11:44 AM 32.7000 -117.0500 270° West 198 228 3,200 -900 Descending Southern California TRACON
Thu 12:12:38 AM 32.7167 -117.1000 292° West 144 166 2,200 -1,263 Descending Southern California TRACON
Thu 12:13:38 AM 32.7167 -117.1500 270° West 131 151 800 -952 Descending Southern California TRACON
Thu 12:14:44 AM 32.7339 -117.1900 297° West 134 154 200 -545 Descending Los Angeles Center
Thu 12:16:00 AM 32.7336 -117.1897 130° Southeast  Level Estimated
Thu 12:23:00 AM 32.7333 -117.1833 North  Level FlightAware Approximate

Login

Don't have an account? Register now (free) for customized features, flight alerts, and more!